createdAt,value
2023-02-22T00:00:59.823Z,4.31
2023-02-22T00:03:32.282Z,4.34
2023-02-22T00:06:04.153Z,4.31
2023-02-22T00:08:35.510Z,4.34
2023-02-22T00:11:05.180Z,4.30
2023-02-22T00:13:32.971Z,4.24
2023-02-22T00:16:02.079Z,4.18
2023-02-22T00:18:30.361Z,4.16
2023-02-22T00:21:00.272Z,4.10
2023-02-22T00:23:30.298Z,4.04
2023-02-22T00:26:01.201Z,4.04
2023-02-22T00:28:30.629Z,4.03
2023-02-22T00:30:59.824Z,4.01
2023-02-22T00:33:27.766Z,3.96
2023-02-22T00:35:55.617Z,3.94
2023-02-22T00:38:23.537Z,3.96
2023-02-22T00:40:51.939Z,3.93
2023-02-22T00:43:21.257Z,3.90
2023-02-22T00:45:49.764Z,3.90
2023-02-22T00:48:18.907Z,3.87
2023-02-22T00:50:48.444Z,3.82
2023-02-22T00:53:17.444Z,3.83
2023-02-22T00:55:45.265Z,3.79
2023-02-22T00:58:13.180Z,3.72
2023-02-22T01:00:43.932Z,3.67
2023-02-22T01:03:14.650Z,3.69
2023-02-22T01:05:42.955Z,3.66
2023-02-22T01:08:13.160Z,3.94
2023-02-22T01:10:41.209Z,4.40
2023-02-22T01:13:12.088Z,4.55
2023-02-22T01:15:44.841Z,4.95
2023-02-22T01:18:17.229Z,5.03
2023-02-22T01:20:47.932Z,5.12
2023-02-22T01:23:17.410Z,5.20
2023-02-22T01:25:45.500Z,5.37
2023-02-22T01:28:15.448Z,5.43
2023-02-22T01:30:44.829Z,4.86
2023-02-22T01:33:15.573Z,4.47
2023-02-22T01:35:46.208Z,4.21
2023-02-22T01:38:15.231Z,4.11
2023-02-22T01:40:47.818Z,4.00
2023-02-22T01:43:20.977Z,3.89
2023-02-22T01:45:58.979Z,3.80
2023-02-22T01:48:32.520Z,3.79
2023-02-22T01:51:02.783Z,3.73
2023-02-22T01:53:34.950Z,3.69
2023-02-22T01:56:03.339Z,3.67
2023-02-22T01:58:34.565Z,3.65
2023-02-22T02:01:04.322Z,3.59
2023-02-22T02:03:36.658Z,3.59
2023-02-22T02:06:07.335Z,3.56
2023-02-22T02:08:39.940Z,3.52
2023-02-22T02:11:10.084Z,3.56
2023-02-22T02:13:38.358Z,3.53
2023-02-22T02:25:07.462Z,3.36
2023-02-22T02:27:50.434Z,3.32
2023-02-22T02:30:58.238Z,3.28
2023-02-22T02:33:34.259Z,3.31
2023-02-22T02:36:05.403Z,3.32
2023-02-22T02:38:36.302Z,3.36
2023-02-22T02:41:11.764Z,3.40
2023-02-22T02:43:43.946Z,3.39
2023-02-22T02:46:19.125Z,3.38
2023-02-22T02:48:54.766Z,3.32
2023-02-22T02:51:26.235Z,3.31
2023-02-22T02:53:55.367Z,3.32
2023-02-22T02:56:24.599Z,3.32
2023-02-22T02:58:53.988Z,3.31
2023-02-22T03:01:46.275Z,3.35
2023-02-22T03:04:28.053Z,3.31
2023-02-22T03:07:15.711Z,3.28
2023-02-22T03:09:58.517Z,3.22
2023-02-22T03:12:38.088Z,3.14
2023-02-22T03:15:14.790Z,3.11
2023-02-22T03:17:50.926Z,3.08
2023-02-22T03:20:31.598Z,3.09
2023-02-22T03:23:08.164Z,2.95
2023-02-22T03:25:41.001Z,2.81
2023-02-22T03:28:12.954Z,2.74
2023-02-22T03:30:45.628Z,2.70
2023-02-22T03:33:20.413Z,2.61
2023-02-22T03:35:56.861Z,2.54
2023-02-22T03:38:28.058Z,2.42
2023-02-22T03:41:01.739Z,2.37
2023-02-22T03:43:35.763Z,2.29
2023-02-22T03:46:07.769Z,2.21
2023-02-22T03:48:41.108Z,2.09
2023-02-22T03:51:10.861Z,2.18
2023-02-22T03:53:38.950Z,2.15
2023-02-22T03:56:12.050Z,2.25
2023-02-22T03:58:44.024Z,2.21
2023-02-22T04:01:13.419Z,2.22
2023-02-22T04:03:42.160Z,2.09
2023-02-22T04:06:11.689Z,1.99
2023-02-22T04:08:40.031Z,2.06
2023-02-22T04:11:08.660Z,1.99
2023-02-22T04:13:36.591Z,1.98
2023-02-22T04:16:04.663Z,1.97
2023-02-22T04:18:32.627Z,1.98
2023-02-22T04:21:01.581Z,1.91
2023-02-22T04:23:38.537Z,1.89
2023-02-22T04:26:06.557Z,1.85
2023-02-22T04:28:34.520Z,1.86
2023-02-22T04:31:16.005Z,1.89
2023-02-22T04:33:44.788Z,1.88
2023-02-22T04:36:16.742Z,1.85
2023-02-22T04:38:47.507Z,2.02
2023-02-22T04:41:15.613Z,2.28
2023-02-22T04:43:43.867Z,2.22
2023-02-22T04:46:17.786Z,2.32
2023-02-22T04:48:46.144Z,2.43
2023-02-22T04:51:17.123Z,2.53
2023-02-22T04:53:57.416Z,2.58
2023-02-22T04:56:26.010Z,2.61
2023-02-22T04:58:53.870Z,2.46
2023-02-22T05:01:21.784Z,2.42
2023-02-22T05:03:49.771Z,2.29
2023-02-22T05:06:17.880Z,2.21
2023-02-22T05:08:45.761Z,2.08
2023-02-22T05:11:15.219Z,2.01
2023-02-22T05:13:43.752Z,1.92
2023-02-22T05:16:11.726Z,1.83
2023-02-22T05:18:39.703Z,1.79
2023-02-22T05:21:07.745Z,1.74
2023-02-22T05:23:35.787Z,1.71
2023-02-22T05:26:03.631Z,1.68
2023-02-22T05:28:32.986Z,1.61
2023-02-22T05:31:00.780Z,1.58
2023-02-22T05:33:28.616Z,1.54
2023-02-22T05:35:56.475Z,1.54
2023-02-22T05:38:24.310Z,1.57
2023-02-22T05:40:52.607Z,1.67
2023-02-22T05:43:21.367Z,2.01
2023-02-22T05:45:50.557Z,2.06
2023-02-22T05:48:22.548Z,2.23
2023-02-22T05:50:50.982Z,2.28
2023-02-22T05:53:18.816Z,2.33
2023-02-22T05:55:46.719Z,2.39
2023-02-22T05:58:15.166Z,2.44
2023-02-22T06:00:43.041Z,2.47
2023-02-22T06:03:12.623Z,2.43
2023-02-22T06:05:42.023Z,2.46
2023-02-22T06:08:10.490Z,2.49
2023-02-22T06:10:38.616Z,2.53
2023-02-22T06:13:07.354Z,2.53
2023-02-22T06:15:35.203Z,2.54
2023-02-22T06:18:03.361Z,2.49
2023-02-22T06:20:33.381Z,2.49
2023-02-22T06:23:01.265Z,2.42
2023-02-22T06:25:31.355Z,2.43
2023-02-22T06:27:59.802Z,2.46
2023-02-22T06:30:29.027Z,2.50
2023-02-22T06:32:57.346Z,2.54
2023-02-22T06:35:25.265Z,2.54
2023-02-22T06:37:54.514Z,2.42
2023-02-22T06:40:22.452Z,2.33
2023-02-22T06:42:50.718Z,2.23
2023-02-22T06:45:19.246Z,2.21
2023-02-22T06:47:47.243Z,2.16
2023-02-22T06:50:22.368Z,2.16
2023-02-22T06:52:50.237Z,2.22
2023-02-22T06:55:21.463Z,2.21
2023-02-22T06:57:49.373Z,2.25
2023-02-22T07:00:18.947Z,2.37
2023-02-22T07:02:48.410Z,3.15
2023-02-22T07:05:17.644Z,3.85
2023-02-22T07:07:45.992Z,4.14
2023-02-22T07:10:22.368Z,3.76
2023-02-22T07:12:52.448Z,3.56
2023-02-22T07:15:22.490Z,3.32
2023-02-22T07:17:50.683Z,3.28
2023-02-22T07:20:20.500Z,3.28
2023-02-22T07:22:48.722Z,3.40
2023-02-22T07:25:16.609Z,3.43
2023-02-22T07:27:46.651Z,3.52
2023-02-22T07:30:19.130Z,3.72
2023-02-22T07:32:47.691Z,3.96
2023-02-22T07:35:17.584Z,4.04
2023-02-22T07:37:45.772Z,4.34
2023-02-22T07:40:13.667Z,4.69
2023-02-22T07:42:57.428Z,5.12
2023-02-22T07:45:26.688Z,5.29
2023-02-22T07:47:54.541Z,5.48
2023-02-22T07:50:24.012Z,5.77
2023-02-22T07:52:53.257Z,6.25
2023-02-22T07:55:24.759Z,6.74
2023-02-22T07:57:55.838Z,7.08
2023-02-22T08:00:25.661Z,7.34
2023-02-22T08:02:53.707Z,7.36
2023-02-22T08:05:23.243Z,7.55
2023-02-22T08:07:51.086Z,7.67
2023-02-22T08:10:20.703Z,7.86
2023-02-22T08:12:49.417Z,8.03
2023-02-22T08:15:21.605Z,8.17
2023-02-22T08:17:49.489Z,8.35
2023-02-22T08:20:18.023Z,8.89
2023-02-22T08:22:45.893Z,9.34
2023-02-22T08:25:15.557Z,9.64
2023-02-22T08:27:43.804Z,10.02
2023-02-22T08:30:17.261Z,10.43
2023-02-22T08:32:48.095Z,10.73
2023-02-22T08:35:17.622Z,10.94
2023-02-22T08:37:45.889Z,11.27
2023-02-22T08:40:17.189Z,11.38
2023-02-22T08:42:45.408Z,11.45
2023-02-22T08:45:14.292Z,11.52
2023-02-22T08:47:42.640Z,11.71
2023-02-22T08:50:19.668Z,11.96
2023-02-22T08:52:47.719Z,12.04
2023-02-22T08:55:15.605Z,12.02
2023-02-22T08:57:43.430Z,12.10
2023-02-22T09:00:12.656Z,12.69
2023-02-22T09:02:40.312Z,12.87
2023-02-22T09:05:09.313Z,13.01
2023-02-22T09:07:38.672Z,13.49
2023-02-22T09:10:06.753Z,13.63
2023-02-22T09:12:34.632Z,14.15
2023-02-22T09:15:02.594Z,14.69
2023-02-22T09:17:30.400Z,15.14
2023-02-22T09:19:58.266Z,15.51
2023-02-22T09:22:26.131Z,15.98
2023-02-22T09:24:56.989Z,16.39
2023-02-22T09:27:28.242Z,17.07
2023-02-22T09:29:56.973Z,17.79
2023-02-22T09:32:27.848Z,18.52
2023-02-22T09:34:56.248Z,19.42
2023-02-22T09:37:24.118Z,20.48
2023-02-22T09:39:52.380Z,20.57
2023-02-22T09:42:28.546Z,20.85
2023-02-22T09:45:03.873Z,21.19
2023-02-22T09:47:41.205Z,21.19
2023-02-22T09:50:15.587Z,21.96
2023-02-22T09:52:54.727Z,22.40
2023-02-22T09:55:34.152Z,22.30
2023-02-22T09:58:08.487Z,22.45
2023-02-22T10:00:38.609Z,22.16
2023-02-22T10:03:21.239Z,22.19
2023-02-22T10:05:54.290Z,22.16
2023-02-22T10:08:22.370Z,22.05
2023-02-22T10:11:03.846Z,21.94
2023-02-22T10:13:44.690Z,22.06
2023-02-22T10:16:19.739Z,21.82
2023-02-22T10:19:08.530Z,21.31
2023-02-22T10:21:47.476Z,20.87
2023-02-22T10:24:23.578Z,20.36
2023-02-22T10:26:54.124Z,20.71
2023-02-22T10:29:31.369Z,20.53
2023-02-22T10:32:02.936Z,20.92
2023-02-22T10:34:33.720Z,20.59
2023-02-22T10:37:14.868Z,20.56
2023-02-22T10:39:44.235Z,20.66
2023-02-22T10:42:12.273Z,20.35
2023-02-22T10:44:42.087Z,20.00
2023-02-22T10:47:11.844Z,19.77
2023-02-22T10:49:47.857Z,19.56
2023-02-22T10:52:23.306Z,19.49
2023-02-22T10:54:54.408Z,19.98
2023-02-22T10:57:27.691Z,20.25
2023-02-22T10:59:57.842Z,19.97
2023-02-22T11:02:31.214Z,19.83
2023-02-22T11:05:01.028Z,20.24
2023-02-22T11:07:31.035Z,20.77
2023-02-22T11:10:01.197Z,20.48
2023-02-22T11:12:32.102Z,20.18
2023-02-22T11:15:26.856Z,19.77
2023-02-22T11:17:57.429Z,20.14
2023-02-22T11:20:27.543Z,19.98
2023-02-22T11:22:58.275Z,20.36
2023-02-22T11:25:28.979Z,20.38
2023-02-22T11:27:59.893Z,20.34
2023-02-22T11:30:32.300Z,20.29
2023-02-22T11:33:06.146Z,20.32
2023-02-22T11:35:38.224Z,19.83
2023-02-22T11:38:22.029Z,19.97
2023-02-22T11:41:07.893Z,20.01
2023-02-22T11:43:36.240Z,20.01
2023-02-22T11:46:08.384Z,20.07
2023-02-22T11:48:39.928Z,19.85
2023-02-22T11:51:18.599Z,19.45
2023-02-22T11:54:13.054Z,18.99
2023-02-22T11:56:43.705Z,18.30
2023-02-22T11:59:25.846Z,18.41
2023-02-22T12:01:59.982Z,18.27
2023-02-22T12:04:51.608Z,18.13
2023-02-22T12:07:31.705Z,18.68
2023-02-22T12:10:10.050Z,19.19
2023-02-22T12:12:47.525Z,18.78
2023-02-22T12:15:29.644Z,18.62
2023-02-22T12:18:05.922Z,18.58
2023-02-22T12:20:40.709Z,18.79
2023-02-22T12:23:20.067Z,18.67
2023-02-22T12:25:58.584Z,18.20
2023-02-22T12:28:32.445Z,18.04
2023-02-22T12:31:09.050Z,17.97
2023-02-22T12:33:50.714Z,18.07
2023-02-22T12:36:23.876Z,18.10
2023-02-22T12:38:58.175Z,17.97
2023-02-22T12:41:31.340Z,17.80
2023-02-22T12:44:03.476Z,17.51
2023-02-22T12:46:35.369Z,17.29
2023-02-22T12:49:15.300Z,17.25
2023-02-22T12:51:49.731Z,17.14
2023-02-22T12:54:25.569Z,17.10
2023-02-22T12:56:58.165Z,17.39
2023-02-22T12:59:32.286Z,17.42
2023-02-22T13:02:04.442Z,17.58
2023-02-22T13:04:34.711Z,17.83
2023-02-22T13:07:15.952Z,18.14
2023-02-22T13:10:15.378Z,18.40
2023-02-22T13:12:52.474Z,18.30
2023-02-22T13:15:25.404Z,18.54
2023-02-22T13:18:01.969Z,18.43
2023-02-22T13:20:35.405Z,17.45
2023-02-22T13:23:08.540Z,16.87
2023-02-22T13:25:44.366Z,16.29
2023-02-22T13:28:23.221Z,16.18
2023-02-22T13:31:04.929Z,15.97
2023-02-22T13:33:45.000Z,15.97
2023-02-22T13:36:32.866Z,15.81
2023-02-22T13:39:30.801Z,15.79
2023-02-22T13:42:22.475Z,15.87
2023-02-22T13:45:24.929Z,15.84
2023-02-22T13:48:12.048Z,15.92
2023-02-22T13:51:01.278Z,15.89
2023-02-22T13:53:35.910Z,15.81
2023-02-22T13:56:04.023Z,15.77
2023-02-22T13:58:31.946Z,15.64
2023-02-22T14:01:00.698Z,15.55
2023-02-22T14:03:40.730Z,15.54
2023-02-22T14:06:32.835Z,15.28
2023-02-22T14:09:08.516Z,15.27
2023-02-22T14:11:45.945Z,15.24
2023-02-22T14:14:20.729Z,15.20
2023-02-22T14:17:22.009Z,15.10
2023-02-22T14:20:14.757Z,15.02
2023-02-22T14:22:43.105Z,15.04
2023-02-22T14:25:37.837Z,15.27
2023-02-22T14:28:07.409Z,15.41
2023-02-22T14:30:38.237Z,15.61
2023-02-22T14:33:46.753Z,15.67
2023-02-22T14:36:14.820Z,15.59
2023-02-22T14:38:46.084Z,15.40
2023-02-22T14:41:17.871Z,15.48
2023-02-22T14:43:47.276Z,15.41
2023-02-22T14:46:21.335Z,15.34
2023-02-22T14:48:52.853Z,15.14
2023-02-22T14:51:26.849Z,14.89
2023-02-22T14:54:00.949Z,14.87
2023-02-22T14:56:41.166Z,14.80
2023-02-22T14:59:17.975Z,14.59
2023-02-22T15:01:58.682Z,14.61
2023-02-22T15:04:33.893Z,14.46
2023-02-22T15:07:09.957Z,14.45
2023-02-22T15:09:37.843Z,14.38
2023-02-22T15:12:18.127Z,14.25
2023-02-22T15:14:47.705Z,14.18
2023-02-22T15:17:21.189Z,14.07
2023-02-22T15:19:50.076Z,13.97
2023-02-22T15:22:22.767Z,13.88
2023-02-22T15:24:59.777Z,13.81
2023-02-22T15:27:29.834Z,13.69
2023-02-22T15:30:04.584Z,13.66
2023-02-22T15:32:36.271Z,13.60
2023-02-22T15:35:14.583Z,13.43
2023-02-22T15:37:44.371Z,13.40
2023-02-22T15:40:15.991Z,13.33
2023-02-22T15:42:47.555Z,13.23
2023-02-22T15:45:20.898Z,13.18
2023-02-22T15:47:50.663Z,13.15
2023-02-22T15:50:23.795Z,13.13
2023-02-22T15:53:01.627Z,13.04
2023-02-22T15:55:33.528Z,13.04
2023-02-22T15:58:10.827Z,13.06
2023-02-22T16:00:40.608Z,12.98
2023-02-22T16:03:10.842Z,12.98
2023-02-22T16:05:42.107Z,12.85
2023-02-22T16:08:17.933Z,12.78
2023-02-22T16:10:53.834Z,12.65
2023-02-22T16:13:31.981Z,12.57
2023-02-22T16:16:02.838Z,12.54
2023-02-22T16:18:33.911Z,12.53
2023-02-22T16:21:04.372Z,12.45
2023-02-22T16:23:33.593Z,12.40
2023-02-22T16:26:20.675Z,12.33
2023-02-22T16:28:55.263Z,12.26
2023-02-22T16:31:25.294Z,12.26
2023-02-22T16:33:53.984Z,12.19
2023-02-22T16:36:25.631Z,12.12
2023-02-22T16:38:53.690Z,12.12
2023-02-22T16:41:21.568Z,12.04
2023-02-22T16:43:51.732Z,12.04
2023-02-22T16:46:20.530Z,11.96
2023-02-22T16:48:48.592Z,11.83
2023-02-22T16:51:20.461Z,11.76
2023-02-22T16:53:49.674Z,11.68
2023-02-22T16:56:20.417Z,11.63
2023-02-22T16:58:52.743Z,11.57
2023-02-22T17:01:23.363Z,11.38
2023-02-22T17:03:53.798Z,11.25
2023-02-22T17:06:22.134Z,11.22
2023-02-22T17:08:51.932Z,11.17
2023-02-22T17:11:20.457Z,11.00
2023-02-22T17:13:51.683Z,10.97
2023-02-22T17:16:21.231Z,10.99
2023-02-22T17:18:49.846Z,10.90
2023-02-22T17:21:17.735Z,10.74
2023-02-22T17:23:46.184Z,10.69
2023-02-22T17:26:16.243Z,10.71
2023-02-22T17:28:44.425Z,10.70
2023-02-22T17:31:21.681Z,10.67
2023-02-22T17:33:51.299Z,10.66
2023-02-22T17:36:25.410Z,10.60
2023-02-22T17:38:53.362Z,10.57
2023-02-22T17:41:21.542Z,10.49
2023-02-22T17:43:49.407Z,10.45
2023-02-22T17:46:19.636Z,10.48
2023-02-22T17:48:49.272Z,10.46
2023-02-22T17:51:17.350Z,10.42
2023-02-22T17:53:45.167Z,10.46
2023-02-22T17:56:18.471Z,10.42
2023-02-22T17:58:47.411Z,10.39
2023-02-22T18:01:25.199Z,10.28
2023-02-22T18:03:54.458Z,10.36
2023-02-22T18:06:25.502Z,10.35
2023-02-22T18:08:56.268Z,10.29
2023-02-22T18:11:26.365Z,10.26
2023-02-22T18:13:55.073Z,10.22
2023-02-22T18:16:23.952Z,10.23
2023-02-22T18:18:51.821Z,10.20
2023-02-22T18:21:21.319Z,10.20
2023-02-22T18:23:49.180Z,10.09
2023-02-22T18:26:18.322Z,10.06
2023-02-22T18:28:48.556Z,10.05
2023-02-22T18:31:19.074Z,10.06
2023-02-22T18:33:49.257Z,10.01
2023-02-22T18:36:22.648Z,9.97
2023-02-22T18:38:53.600Z,9.89
2023-02-22T18:41:25.645Z,9.91
2023-02-22T18:43:55.306Z,9.88
2023-02-22T18:46:24.650Z,9.91
2023-02-22T18:48:54.813Z,9.82
2023-02-22T18:51:23.753Z,9.82
2023-02-22T18:53:56.869Z,9.85
2023-02-22T18:56:29.611Z,9.87
2023-02-22T18:58:59.696Z,9.78
2023-02-22T19:01:28.749Z,9.73
2023-02-22T19:03:56.629Z,9.73
2023-02-22T19:06:24.610Z,9.65
2023-02-22T19:08:53.952Z,9.61
2023-02-22T19:11:22.949Z,9.61
2023-02-22T19:13:52.625Z,9.61
2023-02-22T19:16:22.581Z,9.67
2023-02-22T19:18:52.415Z,9.58
2023-02-22T19:21:21.765Z,9.51
2023-02-22T19:23:49.934Z,9.51
2023-02-22T19:26:23.887Z,9.55
2023-02-22T19:28:53.049Z,9.58
2023-02-22T19:31:26.075Z,9.51
2023-02-22T19:33:54.101Z,9.48
2023-02-22T19:36:23.663Z,9.54
2023-02-22T19:38:52.077Z,9.51
2023-02-22T19:41:23.857Z,9.52
2023-02-22T19:43:53.842Z,9.51
2023-02-22T19:46:22.306Z,9.54
2023-02-22T19:48:50.990Z,9.55
2023-02-22T19:51:25.608Z,9.52
2023-02-22T19:53:54.607Z,9.48
2023-02-22T19:56:27.297Z,9.47
2023-02-22T19:58:57.070Z,9.47
2023-02-22T20:01:26.426Z,9.55
2023-02-22T20:03:55.113Z,9.52
2023-02-22T20:06:26.473Z,9.55
2023-02-22T20:08:54.803Z,9.60
2023-02-22T20:11:24.913Z,9.51
2023-02-22T20:13:52.851Z,9.47
2023-02-22T20:16:20.724Z,9.37
2023-02-22T20:18:49.620Z,9.38
2023-02-22T20:21:21.811Z,9.36
2023-02-22T20:23:49.669Z,9.37
2023-02-22T20:26:19.894Z,9.38
2023-02-22T20:28:49.538Z,9.40
2023-02-22T20:31:18.165Z,9.40
2023-02-22T20:33:48.009Z,9.40
2023-02-22T20:36:17.727Z,9.40
2023-02-22T20:38:46.974Z,9.38
2023-02-22T20:41:17.559Z,9.33
2023-02-22T20:43:45.563Z,9.31
2023-02-22T20:46:15.183Z,9.33
2023-02-22T20:48:43.081Z,9.34
2023-02-22T20:51:12.450Z,9.40
2023-02-22T20:53:41.845Z,9.41
2023-02-22T20:56:13.346Z,9.41
2023-02-22T20:58:41.514Z,9.37
2023-02-22T21:01:12.144Z,9.37
2023-02-22T21:03:42.188Z,9.37
2023-02-22T21:06:11.776Z,9.34
2023-02-22T21:08:40.309Z,9.31
2023-02-22T21:11:11.696Z,9.27
2023-02-22T21:13:39.730Z,9.24
2023-02-22T21:16:10.261Z,9.33
2023-02-22T21:18:38.445Z,9.22
2023-02-22T21:21:10.342Z,9.22
2023-02-22T21:23:38.785Z,9.19
2023-02-22T21:26:07.305Z,9.19
2023-02-22T21:28:50.410Z,9.23
2023-02-22T21:31:21.001Z,9.27
2023-02-22T21:33:51.170Z,9.23
2023-02-22T21:36:21.289Z,9.17
2023-02-22T21:38:53.129Z,9.22
2023-02-22T21:41:23.596Z,9.27
2023-02-22T21:43:52.756Z,9.24
2023-02-22T21:46:21.061Z,9.31
2023-02-22T21:48:49.357Z,9.27
2023-02-22T21:51:19.777Z,9.31
2023-02-22T21:53:52.103Z,9.27
2023-02-22T21:56:23.740Z,9.27
2023-02-22T21:58:59.155Z,9.30
2023-02-22T22:01:28.515Z,9.27
2023-02-22T22:03:59.592Z,9.29
2023-02-22T22:06:29.053Z,9.33
2023-02-22T22:08:59.816Z,9.31
2023-02-22T22:11:30.572Z,9.33
2023-02-22T22:13:59.659Z,9.34
2023-02-22T22:16:29.768Z,9.31
2023-02-22T22:18:58.663Z,9.29
2023-02-22T22:21:27.209Z,9.30
2023-02-22T22:23:56.304Z,9.30
2023-02-22T22:26:27.356Z,9.30
2023-02-22T22:28:57.429Z,9.33
2023-02-22T22:31:26.784Z,9.30
2023-02-22T22:33:54.604Z,9.29
2023-02-22T22:36:23.510Z,9.31
2023-02-22T22:38:52.765Z,9.29
2023-02-22T22:41:21.909Z,9.24
2023-02-22T22:43:52.741Z,9.22
2023-02-22T22:46:21.517Z,9.17
2023-02-22T22:48:49.450Z,9.19
2023-02-22T22:51:20.324Z,9.22
2023-02-22T22:53:50.352Z,9.26
2023-02-22T22:56:20.406Z,9.24
2023-02-22T22:58:51.962Z,9.23
2023-02-22T23:01:26.785Z,9.22
2023-02-22T23:03:56.222Z,9.27
2023-02-22T23:06:28.133Z,9.27
2023-02-22T23:08:59.935Z,9.24
2023-02-22T23:11:29.189Z,9.24
2023-02-22T23:14:00.197Z,9.20
2023-02-22T23:16:28.669Z,9.17
2023-02-22T23:18:56.519Z,9.16
2023-02-22T23:21:24.625Z,9.20
2023-02-22T23:23:56.134Z,9.20
2023-02-22T23:26:26.637Z,9.17
2023-02-22T23:28:57.019Z,9.16
2023-02-22T23:31:29.382Z,9.09
2023-02-22T23:33:58.937Z,9.03
2023-02-22T23:36:27.436Z,9.06
2023-02-22T23:38:55.879Z,9.09
2023-02-22T23:41:25.157Z,9.07
2023-02-22T23:43:53.886Z,9.02
2023-02-22T23:46:21.892Z,9.00
2023-02-22T23:48:54.519Z,8.97
2023-02-22T23:51:25.732Z,9.00
2023-02-22T23:53:55.704Z,9.06
2023-02-22T23:56:27.545Z,8.97
2023-02-22T23:58:57.360Z,8.95
